createdAt,value
2019-03-08T00:01:21.451Z,51.65
2019-03-08T00:02:21.500Z,50.79
2019-03-08T00:04:14.493Z,51.08
2019-03-08T00:05:14.551Z,50.89
2019-03-08T00:07:07.539Z,50.70
2019-03-08T00:08:07.591Z,50.23
2019-03-08T00:10:00.575Z,50.32
2019-03-08T00:11:00.621Z,51.08
2019-03-08T00:12:53.612Z,51.27
2019-03-08T00:13:53.662Z,50.51
2019-03-08T00:15:46.647Z,50.70
2019-03-08T00:16:46.692Z,49.75
2019-03-08T00:18:39.687Z,50.13
2019-03-08T00:19:39.746Z,49.27
2019-03-08T00:21:32.731Z,49.18
2019-03-08T00:22:32.777Z,49.08
2019-03-08T00:24:25.763Z,49.56
2019-03-08T00:25:25.812Z,49.18
2019-03-08T00:27:18.790Z,48.42
2019-03-08T00:28:18.848Z,47.28
2019-03-08T00:30:11.828Z,46.80
2019-03-08T00:31:11.881Z,46.51
2019-03-08T00:33:04.855Z,46.61
2019-03-08T00:34:04.912Z,45.47
2019-03-08T00:35:57.896Z,46.04
2019-03-08T00:36:57.946Z,45.37
2019-03-08T00:38:50.922Z,45.75
2019-03-08T00:39:50.977Z,45.09
2019-03-08T00:41:43.961Z,43.66
2019-03-08T00:42:44.012Z,43.47
2019-03-08T00:44:36.992Z,42.79
2019-03-08T00:45:37.045Z,42.60
2019-03-08T00:47:30.039Z,42.79
2019-03-08T00:48:30.103Z,42.69
2019-03-08T00:50:23.078Z,41.17
2019-03-08T00:51:23.128Z,40.98
2019-03-08T00:53:16.114Z,40.98
2019-03-08T00:54:16.168Z,40.79
2019-03-08T00:56:09.150Z,40.79
2019-03-08T00:57:09.214Z,41.26
2019-03-08T00:59:02.172Z,40.41
2019-03-08T01:00:02.232Z,40.88
2019-03-08T01:01:55.722Z,41.17
2019-03-08T01:02:55.772Z,40.98
2019-03-08T01:04:48.764Z,41.64
2019-03-08T01:05:48.803Z,41.74
2019-03-08T01:07:41.785Z,42.12
2019-03-08T01:08:41.851Z,42.31
2019-03-08T01:10:34.822Z,43.16
2019-03-08T01:11:34.866Z,43.73
2019-03-08T01:13:27.850Z,44.02
2019-03-08T01:14:27.907Z,43.26
2019-03-08T01:16:20.896Z,44.12
2019-03-08T01:17:20.947Z,43.35
2019-03-08T01:19:13.922Z,43.93
2019-03-08T01:20:13.978Z,43.83
2019-03-08T01:22:06.965Z,43.83
2019-03-08T01:23:07.011Z,43.73
2019-03-08T01:24:59.993Z,43.93
2019-03-08T01:26:00.043Z,43.73
2019-03-08T01:27:53.025Z,43.93
2019-03-08T01:28:53.074Z,43.73
2019-03-08T01:30:46.062Z,43.73
2019-03-08T01:31:46.107Z,42.88
2019-03-08T01:33:39.085Z,42.21
2019-03-08T01:34:39.139Z,41.46
2019-03-08T01:36:32.149Z,41.74
2019-03-08T01:37:32.172Z,41.17
2019-03-08T01:39:25.154Z,41.17
2019-03-08T01:40:25.235Z,41.17
2019-03-08T01:42:18.212Z,40.69
2019-03-08T01:43:18.265Z,40.50
2019-03-08T01:45:11.245Z,40.31
2019-03-08T01:46:11.319Z,40.03
2019-03-08T01:48:04.281Z,40.03
2019-03-08T01:49:04.333Z,39.93
2019-03-08T01:50:57.310Z,39.93
2019-03-08T01:51:57.362Z,39.93
2019-03-08T01:53:50.345Z,39.93
2019-03-08T01:54:50.405Z,40.31
2019-03-08T01:56:43.387Z,40.31
2019-03-08T01:57:43.433Z,40.41
2019-03-08T01:59:36.415Z,40.41
2019-03-08T02:00:36.473Z,40.50
2019-03-08T02:02:30.961Z,40.69
2019-03-08T02:03:31.014Z,40.59
2019-03-08T02:05:23.998Z,41.55
2019-03-08T02:06:24.053Z,42.10
2019-03-08T02:08:17.032Z,43.07
2019-03-08T02:09:17.106Z,44.02
2019-03-08T02:11:10.084Z,44.00
2019-03-08T02:12:10.138Z,44.19
2019-03-08T02:14:03.111Z,44.59
2019-03-08T02:15:03.171Z,44.76
2019-03-08T02:16:56.155Z,45.71
2019-03-08T02:17:56.205Z,44.67
2019-03-08T02:19:49.167Z,44.19
2019-03-08T02:20:49.239Z,44.19
2019-03-08T02:22:42.212Z,44.09
2019-03-08T02:23:42.263Z,44.28
2019-03-08T02:25:35.240Z,44.19
2019-03-08T02:26:35.293Z,44.28
2019-03-08T02:28:28.277Z,43.71
2019-03-08T02:29:28.325Z,43.80
2019-03-08T02:31:21.316Z,44.28
2019-03-08T02:32:21.367Z,44.19
2019-03-08T02:34:14.348Z,45.07
2019-03-08T02:35:14.398Z,44.31
2019-03-08T02:37:07.406Z,44.97
2019-03-08T02:38:07.431Z,44.76
2019-03-08T02:40:00.410Z,44.40
2019-03-08T02:41:00.486Z,44.02
2019-03-08T02:42:53.452Z,44.19
2019-03-08T02:43:53.503Z,44.68
2019-03-08T02:45:46.485Z,45.35
2019-03-08T02:46:46.542Z,45.54
2019-03-08T02:48:39.530Z,44.78
2019-03-08T02:49:39.581Z,45.07
2019-03-08T02:51:32.554Z,45.35
2019-03-08T02:52:32.605Z,45.35
2019-03-08T02:54:25.590Z,46.01
2019-03-08T02:55:25.638Z,45.73
2019-03-08T02:57:18.627Z,46.11
2019-03-08T02:58:18.674Z,45.73
2019-03-08T03:00:11.656Z,45.64
2019-03-08T03:01:11.714Z,45.54
2019-03-08T03:03:04.695Z,45.83
2019-03-08T03:04:04.746Z,45.54
2019-03-08T03:05:57.723Z,45.26
2019-03-08T03:06:57.783Z,44.68
2019-03-08T03:08:50.786Z,44.31
2019-03-08T03:09:50.810Z,44.49
2019-03-08T03:11:43.796Z,44.59
2019-03-08T03:12:43.865Z,44.87
2019-03-08T03:14:36.834Z,44.40
2019-03-08T03:15:36.879Z,44.31
2019-03-08T03:17:29.867Z,44.59
2019-03-08T03:18:29.913Z,44.49
2019-03-08T03:20:22.889Z,45.64
2019-03-08T03:21:22.944Z,46.01
2019-03-08T03:23:15.933Z,45.83
2019-03-08T03:24:15.981Z,45.92
2019-03-08T03:26:08.959Z,45.83
2019-03-08T03:27:09.014Z,45.73
2019-03-08T03:29:02.001Z,47.63
2019-03-08T03:30:02.056Z,48.39
2019-03-08T03:31:55.039Z,49.06
2019-03-08T03:32:55.123Z,49.25
2019-03-08T03:34:48.065Z,49.25
2019-03-08T03:35:48.120Z,49.91
2019-03-08T03:37:41.108Z,49.63
2019-03-08T03:38:41.151Z,49.73
2019-03-08T03:40:34.139Z,49.63
2019-03-08T03:41:34.193Z,49.54
2019-03-08T03:43:27.183Z,49.91
2019-03-08T03:44:27.244Z,50.87
2019-03-08T03:46:20.220Z,50.48
2019-03-08T03:47:20.265Z,50.29
2019-03-08T03:49:13.259Z,50.96
2019-03-08T03:50:13.306Z,50.96
2019-03-08T03:52:06.289Z,50.01
2019-03-08T03:53:06.339Z,50.01
2019-03-08T03:54:59.321Z,49.63
2019-03-08T03:55:59.380Z,49.54
2019-03-08T03:57:52.359Z,49.82
2019-03-08T03:58:52.409Z,49.54
2019-03-08T04:00:45.385Z,49.63
2019-03-08T04:01:45.441Z,49.82
2019-03-08T04:03:38.433Z,50.01
2019-03-08T04:04:38.479Z,50.29
2019-03-08T04:06:31.454Z,50.29
2019-03-08T04:07:31.509Z,50.10
2019-03-08T04:09:24.501Z,49.73
2019-03-08T04:10:24.543Z,49.82
2019-03-08T04:12:17.544Z,49.63
2019-03-08T04:13:17.577Z,49.82
2019-03-08T04:15:10.559Z,49.63
2019-03-08T04:16:10.631Z,48.96
2019-03-08T04:18:03.606Z,48.77
2019-03-08T04:19:03.658Z,49.06
2019-03-08T04:20:56.654Z,49.44
2019-03-08T04:21:56.689Z,49.63
2019-03-08T04:23:49.679Z,49.54
2019-03-08T04:24:49.720Z,49.82
2019-03-08T04:26:42.702Z,49.06
2019-03-08T04:27:42.756Z,49.73
2019-03-08T04:29:35.752Z,49.73
2019-03-08T04:30:35.797Z,49.54
2019-03-08T04:32:28.779Z,49.25
2019-03-08T04:33:28.833Z,49.73
2019-03-08T04:35:21.808Z,49.82
2019-03-08T04:36:21.863Z,49.15
2019-03-08T04:38:14.853Z,48.87
2019-03-08T04:39:14.902Z,48.68
2019-03-08T04:41:07.882Z,49.25
2019-03-08T04:42:07.932Z,49.73
2019-03-08T04:44:00.922Z,48.58
2019-03-08T04:45:00.965Z,48.96
2019-03-08T04:46:53.946Z,48.96
2019-03-08T04:47:54.007Z,49.25
2019-03-08T04:49:46.984Z,48.87
2019-03-08T04:50:47.038Z,48.49
2019-03-08T04:52:40.029Z,49.54
2019-03-08T04:53:40.071Z,49.44
2019-03-08T04:55:33.053Z,49.63
2019-03-08T04:56:33.110Z,49.35
2019-03-08T04:58:26.092Z,49.35
2019-03-08T04:59:26.142Z,50.01
2019-03-08T05:01:19.120Z,49.35
2019-03-08T05:02:19.176Z,50.29
2019-03-08T05:04:12.159Z,49.25
2019-03-08T05:05:12.207Z,49.63
2019-03-08T05:07:05.190Z,49.82
2019-03-08T05:08:05.240Z,49.06
2019-03-08T05:09:58.229Z,49.63
2019-03-08T05:10:58.277Z,49.54
2019-03-08T05:12:51.265Z,49.44
2019-03-08T05:13:51.314Z,49.35
2019-03-08T05:15:44.300Z,49.06
2019-03-08T05:16:44.346Z,49.63
2019-03-08T05:18:37.333Z,49.35
2019-03-08T05:19:37.387Z,48.96
2019-03-08T05:21:30.779Z,48.87
2019-03-08T05:22:30.446Z,49.25
2019-03-08T05:24:23.430Z,48.58
2019-03-08T05:25:23.479Z,48.87
2019-03-08T05:27:16.468Z,49.06
2019-03-08T05:28:16.524Z,48.30
2019-03-08T05:30:09.507Z,48.30
2019-03-08T05:31:09.552Z,48.49
2019-03-08T05:33:02.533Z,48.96
2019-03-08T05:34:02.590Z,48.30
2019-03-08T05:35:55.559Z,49.44
2019-03-08T05:36:55.617Z,49.25
2019-03-08T05:38:48.601Z,49.35
2019-03-08T05:39:48.651Z,49.54
2019-03-08T05:41:41.637Z,48.77
2019-03-08T05:42:41.689Z,48.77
2019-03-08T05:44:34.675Z,48.77
2019-03-08T05:45:34.723Z,49.06
2019-03-08T05:47:27.710Z,48.77
2019-03-08T05:48:27.758Z,48.39
2019-03-08T05:50:20.745Z,48.77
2019-03-08T05:51:20.793Z,48.11
2019-03-08T05:53:13.779Z,48.39
2019-03-08T05:54:13.831Z,47.82
2019-03-08T05:56:06.854Z,47.63
2019-03-08T05:57:06.910Z,47.73
2019-03-08T05:58:59.897Z,48.11
2019-03-08T05:59:59.947Z,48.39
2019-03-08T06:01:53.434Z,47.92
2019-03-08T06:02:53.487Z,47.92
2019-03-08T06:04:46.471Z,48.68
2019-03-08T06:05:46.519Z,47.82
2019-03-08T06:07:39.520Z,48.11
2019-03-08T06:08:39.571Z,47.92
2019-03-08T06:10:32.546Z,48.21
2019-03-08T06:11:32.603Z,48.01
2019-03-08T06:13:25.584Z,47.54
2019-03-08T06:14:25.631Z,47.44
2019-03-08T06:16:18.653Z,47.16
2019-03-08T06:17:18.699Z,47.16
2019-03-08T06:19:11.677Z,47.23
2019-03-08T06:20:11.729Z,47.06
2019-03-08T06:22:04.708Z,47.04
2019-03-08T06:23:04.885Z,46.68
2019-03-08T06:24:57.746Z,46.30
2019-03-08T06:25:57.793Z,45.71
2019-03-08T06:27:50.785Z,45.73
2019-03-08T06:28:50.826Z,45.71
2019-03-08T06:30:43.803Z,44.85
2019-03-08T06:31:43.860Z,45.33
2019-03-08T06:33:36.845Z,45.61
2019-03-08T06:34:36.894Z,46.09
2019-03-08T06:36:29.874Z,46.28
2019-03-08T06:37:29.924Z,46.09
2019-03-08T06:39:22.907Z,45.71
2019-03-08T06:40:22.952Z,45.90
2019-03-08T06:42:15.937Z,45.23
2019-03-08T06:43:15.996Z,45.23
2019-03-08T06:45:08.979Z,44.38
2019-03-08T06:46:09.034Z,44.19
2019-03-08T06:48:02.020Z,44.00
2019-03-08T06:49:02.068Z,43.80
2019-03-08T06:50:55.040Z,42.76
2019-03-08T06:51:55.103Z,43.71
2019-03-08T06:53:48.088Z,43.80
2019-03-08T06:54:48.134Z,43.14
2019-03-08T06:56:41.123Z,43.90
2019-03-08T06:57:41.176Z,43.90
2019-03-08T06:59:34.162Z,43.71
2019-03-08T07:00:34.210Z,43.90
2019-03-08T07:02:27.695Z,44.28
2019-03-08T07:03:27.747Z,43.90
2019-03-08T07:05:20.733Z,43.33
2019-03-08T07:06:20.783Z,43.62
2019-03-08T07:08:13.784Z,43.52
2019-03-08T07:09:13.815Z,43.43
2019-03-08T07:11:06.795Z,43.52
2019-03-08T07:12:06.848Z,43.71
2019-03-08T07:13:59.833Z,43.80
2019-03-08T07:14:59.881Z,44.28
2019-03-08T07:16:52.863Z,43.80
2019-03-08T07:17:52.916Z,44.19
2019-03-08T07:19:45.908Z,45.07
2019-03-08T07:20:45.955Z,45.04
2019-03-08T07:22:38.934Z,46.11
2019-03-08T07:23:38.989Z,46.11
2019-03-08T07:25:31.984Z,47.06
2019-03-08T07:26:32.034Z,47.54
2019-03-08T07:28:25.018Z,48.11
2019-03-08T07:29:25.063Z,48.30
2019-03-08T07:31:18.052Z,48.77
2019-03-08T07:32:18.104Z,49.82
2019-03-08T07:34:11.214Z,52.03
2019-03-08T07:35:11.161Z,53.36
2019-03-08T07:37:04.140Z,57.67
2019-03-08T07:38:04.195Z,62.59
2019-03-08T07:39:57.182Z,71.72
2019-03-08T07:40:57.230Z,71.75
2019-03-08T07:42:50.203Z,72.28
2019-03-08T07:43:50.265Z,72.19
2019-03-08T07:45:44.305Z,75.57
2019-03-08T07:46:43.303Z,74.90
2019-03-08T07:48:36.289Z,79.56
2019-03-08T07:49:36.346Z,79.08
2019-03-08T07:51:29.334Z,81.41
2019-03-08T07:52:29.440Z,80.93
2019-03-08T07:54:22.363Z,81.22
2019-03-08T07:55:22.422Z,81.16
2019-03-08T07:57:15.413Z,76.46
2019-03-08T07:58:15.464Z,71.62
2019-03-08T08:00:08.455Z,64.50
2019-03-08T08:01:08.507Z,61.64
2019-03-08T08:03:03.757Z,58.08
2019-03-08T08:04:01.569Z,57.13
2019-03-08T08:05:58.064Z,56.18
2019-03-08T08:06:54.594Z,57.89
2019-03-08T08:08:51.610Z,58.65
2019-03-08T08:09:47.634Z,55.61
2019-03-08T08:11:40.625Z,57.67
2019-03-08T08:12:40.672Z,57.77
2019-03-08T08:14:39.495Z,57.67
2019-03-08T08:15:33.718Z,57.77
2019-03-08T08:17:26.706Z,55.77
2019-03-08T08:18:26.759Z,55.87
2019-03-08T08:20:19.759Z,57.67
2019-03-08T08:21:19.816Z,63.04
2019-03-08T08:23:12.808Z,68.50
2019-03-08T08:24:12.855Z,67.41
2019-03-08T08:26:05.844Z,63.32
2019-03-08T08:27:07.121Z,66.08
2019-03-08T08:28:58.900Z,61.32
2019-03-08T08:29:58.935Z,61.70
2019-03-08T08:31:51.921Z,66.18
2019-03-08T08:32:51.981Z,73.72
2019-03-08T08:34:44.965Z,78.85
2019-03-08T08:35:45.020Z,78.43
2019-03-08T08:37:38.013Z,77.38
2019-03-08T08:38:38.062Z,79.61
2019-03-08T08:40:31.044Z,78.43
2019-03-08T08:41:31.103Z,71.58
2019-03-08T08:43:24.111Z,63.45
2019-03-08T08:44:24.143Z,60.27
2019-03-08T08:46:17.137Z,52.82
2019-03-08T08:47:17.176Z,55.08
2019-03-08T08:49:10.181Z,49.44
2019-03-08T08:50:10.227Z,46.59
2019-03-08T08:52:03.213Z,46.11
2019-03-08T08:53:03.265Z,45.42
2019-03-08T08:54:56.242Z,44.09
2019-03-08T08:55:56.299Z,43.62
2019-03-08T08:57:49.290Z,43.90
2019-03-08T08:58:49.341Z,43.14
2019-03-08T09:00:42.322Z,43.80
2019-03-08T09:01:42.378Z,43.71
2019-03-08T09:03:35.368Z,44.85
2019-03-08T09:04:35.414Z,44.76
2019-03-08T09:06:28.393Z,45.35
2019-03-08T09:07:28.450Z,46.78
2019-03-08T09:09:21.437Z,46.20
2019-03-08T09:10:21.488Z,45.54
2019-03-08T09:12:14.490Z,44.97
2019-03-08T09:13:14.521Z,45.16
2019-03-08T09:15:07.514Z,47.16
2019-03-08T09:16:07.559Z,47.73
2019-03-08T09:18:00.545Z,47.66
2019-03-08T09:19:00.598Z,47.94
2019-03-08T09:20:53.582Z,47.66
2019-03-08T09:21:53.638Z,47.28
2019-03-08T09:23:46.629Z,47.66
2019-03-08T09:24:46.678Z,47.39
2019-03-08T09:26:39.651Z,49.77
2019-03-08T09:27:39.713Z,50.73
2019-03-08T09:29:41.040Z,50.82
2019-03-08T09:30:32.748Z,50.92
2019-03-08T09:32:25.729Z,51.49
2019-03-08T09:33:25.787Z,54.56
2019-03-08T09:35:18.785Z,51.14
2019-03-08T09:36:18.835Z,55.61
2019-03-08T09:38:11.829Z,50.66
2019-03-08T09:39:11.870Z,55.73
2019-03-08T09:41:04.854Z,56.97
2019-03-08T09:43:17.874Z,57.70
2019-03-08T09:47:02.525Z,53.52
2019-03-08T09:48:02.572Z,55.70
2019-03-08T09:49:55.561Z,56.37
2019-03-08T09:50:55.610Z,55.90
2019-03-08T09:52:48.605Z,56.85
2019-03-08T09:53:48.645Z,55.80
2019-03-08T09:55:41.635Z,59.45
2019-03-08T09:56:41.692Z,58.50
2019-03-08T09:58:34.695Z,59.06
2019-03-08T09:59:34.746Z,57.45
2019-03-08T10:01:27.723Z,60.49
2019-03-08T10:02:27.780Z,63.92
2019-03-08T10:04:20.767Z,64.40
2019-03-08T10:05:20.818Z,66.24
2019-03-08T10:07:13.818Z,64.53
2019-03-08T10:08:13.856Z,67.29
2019-03-08T10:10:06.843Z,67.00
2019-03-08T10:11:06.888Z,66.44
2019-03-08T10:12:59.870Z,66.53
2019-03-08T10:13:59.946Z,68.63
2019-03-08T10:15:52.969Z,71.68
2019-03-08T10:16:52.981Z,70.06
2019-03-08T10:18:45.954Z,69.01
2019-03-08T10:19:46.044Z,72.97
2019-03-08T10:21:38.984Z,68.44
2019-03-08T10:22:39.038Z,74.16
2019-03-08T10:24:32.034Z,76.57
2019-03-08T10:25:32.085Z,71.33
2019-03-08T10:27:25.070Z,81.82
2019-03-08T10:28:25.127Z,80.68
2019-03-08T10:30:18.119Z,78.49
2019-03-08T10:31:18.174Z,78.30
2019-03-08T10:33:11.151Z,77.72
2019-03-08T10:34:11.209Z,78.06
2019-03-08T10:36:04.195Z,77.78
2019-03-08T10:37:04.247Z,77.49
2019-03-08T10:38:57.245Z,79.59
2019-03-08T10:39:57.286Z,79.97
2019-03-08T10:41:50.296Z,80.92
2019-03-08T10:42:50.333Z,77.11
2019-03-08T10:44:43.331Z,78.03
2019-03-08T10:45:43.378Z,74.31
2019-03-08T10:47:36.359Z,74.50
2019-03-08T10:48:36.417Z,77.74
2019-03-08T10:50:29.426Z,75.26
2019-03-08T10:51:29.463Z,76.82
2019-03-08T10:53:22.441Z,79.88
2019-03-08T10:54:22.508Z,79.78
2019-03-08T10:56:15.487Z,82.59
2019-03-08T10:57:15.539Z,79.78
2019-03-08T10:59:08.534Z,78.83
2019-03-08T11:00:08.591Z,79.78
2019-03-08T11:02:02.091Z,79.59
2019-03-08T11:03:02.179Z,81.49
2019-03-08T11:04:55.137Z,81.30
2019-03-08T11:05:55.174Z,79.21
2019-03-08T11:07:48.166Z,82.31
2019-03-08T11:08:48.226Z,82.79
2019-03-08T11:10:41.246Z,82.50
2019-03-08T11:11:41.290Z,79.64
2019-03-08T11:13:42.805Z,82.31
2019-03-08T11:14:34.293Z,80.60
2019-03-08T11:16:27.285Z,82.31
2019-03-08T11:17:27.605Z,80.69
2019-03-08T11:19:20.311Z,81.88
2019-03-08T11:20:20.368Z,80.92
2019-03-08T11:22:13.354Z,80.54
2019-03-08T11:23:13.406Z,79.49
2019-03-08T11:25:08.375Z,81.59
2019-03-08T11:26:06.442Z,80.44
2019-03-08T11:27:59.442Z,78.83
2019-03-08T11:28:59.478Z,75.96
2019-03-08T11:30:54.144Z,81.55
2019-03-08T11:31:52.527Z,76.16
2019-03-08T11:33:45.503Z,81.97
2019-03-08T11:34:51.951Z,83.59
2019-03-08T11:36:38.549Z,81.02
2019-03-08T11:37:38.601Z,82.45
2019-03-08T11:39:31.581Z,79.97
2019-03-08T11:40:31.639Z,81.68
2019-03-08T11:42:24.628Z,80.73
2019-03-08T11:43:24.677Z,81.59
2019-03-08T11:45:17.656Z,80.92
2019-03-08T11:46:17.710Z,79.68
2019-03-08T11:48:10.701Z,78.69
2019-03-08T11:49:11.726Z,78.41
2019-03-08T11:51:03.737Z,77.93
2019-03-08T11:52:03.790Z,79.83
2019-03-08T11:53:56.777Z,76.50
2019-03-08T11:54:56.826Z,75.84
2019-03-08T11:56:56.184Z,77.59
2019-03-08T11:57:49.865Z,79.21
2019-03-08T11:59:42.844Z,79.59
2019-03-08T12:00:42.901Z,78.83
2019-03-08T12:02:38.012Z,78.86
2019-03-08T12:03:36.446Z,79.72
2019-03-08T12:05:29.428Z,78.01
2019-03-08T12:06:29.482Z,81.06
2019-03-08T12:08:22.479Z,79.53
2019-03-08T12:09:22.530Z,79.53
2019-03-08T12:11:16.522Z,83.06
2019-03-08T12:12:15.575Z,82.11
2019-03-08T12:14:08.566Z,81.29
2019-03-08T12:15:08.612Z,78.91
2019-03-08T12:17:01.590Z,83.62
2019-03-08T12:18:01.647Z,84.20
2019-03-08T12:19:54.639Z,83.86
2019-03-08T12:20:54.687Z,81.85
2019-03-08T12:22:47.677Z,82.04
2019-03-08T12:23:47.733Z,81.66
2019-03-08T12:25:40.963Z,81.71
2019-03-08T12:26:40.764Z,81.81
2019-03-08T12:28:33.756Z,80.81
2019-03-08T12:29:33.801Z,80.62
2019-03-08T12:31:26.790Z,79.96
2019-03-08T12:32:26.848Z,81.35
2019-03-08T12:34:19.842Z,80.77
2019-03-08T12:35:19.923Z,82.35
2019-03-08T12:37:12.868Z,79.78
2019-03-08T12:38:12.927Z,78.73
2019-03-08T12:40:05.968Z,78.41
2019-03-08T12:41:05.975Z,79.07
2019-03-08T12:43:07.604Z,77.74
2019-03-08T12:43:59.076Z,77.64
2019-03-08T12:45:53.025Z,77.55
2019-03-08T12:46:52.106Z,77.98
2019-03-08T12:48:45.200Z,76.65
2019-03-08T12:49:46.227Z,78.27
2019-03-08T12:51:38.183Z,76.27
2019-03-08T12:52:38.224Z,75.89
2019-03-08T12:54:31.275Z,74.65
2019-03-08T12:55:31.311Z,72.65
2019-03-08T12:57:24.269Z,67.51
2019-03-08T12:58:24.329Z,69.60
2019-03-08T13:00:17.324Z,66.08
2019-03-08T13:01:17.355Z,63.70
2019-03-08T13:03:10.367Z,60.27
2019-03-08T13:04:10.407Z,61.22
2019-03-08T13:06:03.389Z,61.13
2019-03-08T13:07:03.433Z,65.23
2019-03-08T13:08:56.481Z,64.18
2019-03-08T13:09:56.481Z,62.18
2019-03-08T13:11:49.439Z,57.04
2019-03-08T13:12:49.493Z,61.99
2019-03-08T13:14:42.487Z,64.84
2019-03-08T13:15:42.544Z,57.70
2019-03-08T13:17:35.542Z,57.70
2019-03-08T13:18:35.577Z,64.02
2019-03-08T13:20:28.562Z,60.88
2019-03-08T13:21:28.616Z,66.40
2019-03-08T13:23:21.615Z,62.97
2019-03-08T13:24:21.668Z,66.72
2019-03-08T13:26:14.647Z,71.30
2019-03-08T13:27:14.710Z,72.00
2019-03-08T13:29:07.699Z,76.96
2019-03-08T13:30:07.752Z,82.49
2019-03-08T13:32:00.745Z,81.25
2019-03-08T13:33:00.790Z,77.91
2019-03-08T13:34:53.811Z,78.30
2019-03-08T13:35:53.827Z,77.20
2019-03-08T13:37:46.851Z,76.88
2019-03-08T13:38:46.889Z,75.16
2019-03-08T13:40:39.883Z,73.80
2019-03-08T13:41:39.929Z,71.67
2019-03-08T13:43:32.918Z,69.00
2019-03-08T13:44:32.964Z,68.43
2019-03-08T13:46:25.935Z,65.86
2019-03-08T13:47:26.003Z,64.34
2019-03-08T13:49:20.114Z,65.19
2019-03-08T13:50:19.039Z,65.77
2019-03-08T13:52:12.019Z,65.95
2019-03-08T13:53:12.076Z,64.90
2019-03-08T13:55:05.063Z,65.58
2019-03-08T13:56:05.117Z,64.05
2019-03-08T13:57:58.121Z,63.20
2019-03-08T13:58:58.153Z,67.10
2019-03-08T14:00:51.136Z,65.67
2019-03-08T14:01:51.195Z,66.43
2019-03-08T14:03:44.182Z,65.29
2019-03-08T14:04:44.233Z,65.95
2019-03-08T14:06:37.264Z,66.05
2019-03-08T14:07:37.274Z,63.39
2019-03-08T14:09:30.265Z,65.77
2019-03-08T14:10:30.316Z,65.86
2019-03-08T14:12:23.296Z,68.05
2019-03-08T14:13:23.355Z,66.53
2019-03-08T14:15:16.344Z,66.81
2019-03-08T14:16:16.389Z,63.29
2019-03-08T14:18:09.389Z,64.81
2019-03-08T14:19:09.427Z,66.37
2019-03-08T14:21:02.416Z,64.18
2019-03-08T14:22:02.477Z,63.13
2019-03-08T14:23:55.474Z,66.75
2019-03-08T14:24:55.515Z,66.94
2019-03-08T14:26:48.498Z,64.84
2019-03-08T14:27:48.554Z,62.94
2019-03-08T14:29:41.539Z,64.75
2019-03-08T14:30:41.590Z,64.56
2019-03-08T14:32:34.734Z,68.44
2019-03-08T14:33:38.178Z,70.63
2019-03-08T14:35:29.672Z,74.06
2019-03-08T14:36:27.662Z,74.77
2019-03-08T14:38:20.665Z,77.13
2019-03-08T14:39:20.702Z,81.67
2019-03-08T14:41:13.687Z,77.19
2019-03-08T14:42:15.528Z,79.82
2019-03-08T14:44:06.733Z,76.35
2019-03-08T14:45:07.740Z,77.87
2019-03-08T14:46:59.757Z,74.60
2019-03-08T14:47:59.818Z,74.69
2019-03-08T14:49:55.276Z,76.79
2019-03-08T14:50:52.857Z,72.60
2019-03-08T14:52:45.848Z,74.88
2019-03-08T14:53:45.897Z,76.69
2019-03-08T14:55:38.888Z,77.55
2019-03-08T14:56:38.937Z,76.12
2019-03-08T14:58:32.551Z,77.36
2019-03-08T14:59:31.983Z,79.55
2019-03-08T15:01:24.967Z,74.50
2019-03-08T15:02:25.018Z,75.45
2019-03-08T15:04:18.018Z,75.64
2019-03-08T15:05:19.219Z,74.02
2019-03-08T15:07:11.045Z,76.40
2019-03-08T15:08:13.594Z,79.27
2019-03-08T15:10:06.205Z,78.12
2019-03-08T15:11:04.141Z,77.64
2019-03-08T15:12:57.126Z,78.69
2019-03-08T15:13:58.984Z,78.50
2019-03-08T15:15:50.167Z,77.83
2019-03-08T15:16:50.220Z,80.98
2019-03-08T15:18:43.196Z,78.12
2019-03-08T15:19:43.260Z,79.46
2019-03-08T15:21:37.038Z,77.64
2019-03-08T15:22:38.000Z,79.07
2019-03-08T15:24:37.903Z,77.83
2019-03-08T15:25:31.392Z,79.03
2019-03-08T15:27:22.317Z,77.13
2019-03-08T15:28:22.375Z,77.51
2019-03-08T15:30:15.362Z,79.03
2019-03-08T15:31:15.410Z,79.03
2019-03-08T15:33:08.403Z,79.80
2019-03-08T15:34:08.449Z,78.65
2019-03-08T15:36:01.437Z,79.74
2019-03-08T15:37:01.485Z,78.41
2019-03-08T15:38:58.513Z,77.45
2019-03-08T15:39:54.523Z,78.69
2019-03-08T15:41:47.517Z,78.98
2019-03-08T15:42:47.566Z,78.78
2019-03-08T15:44:40.563Z,80.88
2019-03-08T15:45:44.398Z,78.59
2019-03-08T15:47:36.268Z,82.89
2019-03-08T15:48:33.644Z,82.21
2019-03-08T15:50:26.634Z,84.98
2019-03-08T15:51:26.984Z,83.45
2019-03-08T15:53:19.663Z,83.74
2019-03-08T15:54:19.717Z,84.03
2019-03-08T15:56:12.718Z,83.55
2019-03-08T15:57:12.770Z,83.07
2019-03-08T15:59:05.750Z,82.89
2019-03-08T16:00:05.806Z,83.45
2019-03-08T16:02:02.078Z,82.89
2019-03-08T16:02:58.918Z,83.55
2019-03-08T16:04:51.837Z,84.31
2019-03-08T16:05:51.879Z,83.17
2019-03-08T16:07:44.859Z,83.45
2019-03-08T16:08:44.918Z,82.69
2019-03-08T16:10:37.900Z,83.17
2019-03-08T16:11:37.954Z,82.84
2019-03-08T16:13:30.931Z,82.65
2019-03-08T16:14:30.992Z,82.46
2019-03-08T16:16:23.982Z,82.27
2019-03-08T16:17:24.030Z,82.46
2019-03-08T16:19:17.012Z,83.22
2019-03-08T16:20:17.067Z,82.93
2019-03-08T16:22:10.057Z,83.41
2019-03-08T16:23:10.107Z,82.75
2019-03-08T16:25:06.543Z,83.41
2019-03-08T16:26:03.156Z,83.32
2019-03-08T16:27:56.180Z,83.32
2019-03-08T16:28:56.225Z,82.18
2019-03-08T16:30:49.189Z,82.75
2019-03-08T16:31:49.255Z,83.61
2019-03-08T16:33:42.214Z,83.22
2019-03-08T16:34:42.493Z,82.65
2019-03-08T16:36:35.347Z,82.18
2019-03-08T16:37:35.345Z,83.22
2019-03-08T16:39:28.303Z,83.61
2019-03-08T16:40:28.360Z,82.08
2019-03-08T16:42:21.356Z,81.98
2019-03-08T16:43:21.403Z,82.75
2019-03-08T16:45:14.391Z,82.37
2019-03-08T16:46:14.445Z,82.56
2019-03-08T16:48:07.415Z,82.18
2019-03-08T16:49:07.471Z,82.56
2019-03-08T16:51:01.253Z,82.18
2019-03-08T16:52:00.525Z,81.60
2019-03-08T16:53:54.103Z,81.79
2019-03-08T16:54:53.569Z,81.32
2019-03-08T16:56:46.541Z,80.75
2019-03-08T16:57:46.587Z,81.79
2019-03-08T16:59:39.571Z,80.55
2019-03-08T17:00:40.455Z,80.75
2019-03-08T17:02:33.126Z,80.55
2019-03-08T17:03:33.178Z,80.55
2019-03-08T17:05:26.168Z,80.55
2019-03-08T17:06:27.778Z,79.60
2019-03-08T17:08:19.186Z,80.46
2019-03-08T17:09:19.242Z,80.08
2019-03-08T17:11:12.234Z,79.89
2019-03-08T17:12:12.285Z,79.80
2019-03-08T17:14:05.266Z,79.99
2019-03-08T17:15:05.327Z,79.41
2019-03-08T17:16:58.341Z,78.65
2019-03-08T17:17:58.369Z,78.46
2019-03-08T17:19:51.351Z,79.32
2019-03-08T17:20:51.415Z,77.89
2019-03-08T17:22:44.394Z,77.80
2019-03-08T17:23:44.439Z,78.75
2019-03-08T17:25:37.431Z,78.27
2019-03-08T17:26:37.478Z,78.37
2019-03-08T17:28:30.459Z,79.60
2019-03-08T17:29:30.508Z,77.98
2019-03-08T17:31:23.503Z,77.98
2019-03-08T17:32:23.551Z,77.98
2019-03-08T17:34:16.529Z,78.65
2019-03-08T17:35:16.593Z,78.46
2019-03-08T17:37:09.577Z,77.89
2019-03-08T17:38:09.626Z,77.61
2019-03-08T17:40:02.606Z,78.65
2019-03-08T17:41:02.659Z,78.46
2019-03-08T17:42:55.647Z,76.94
2019-03-08T17:43:55.692Z,77.98
2019-03-08T17:45:48.705Z,77.51
2019-03-08T17:46:48.737Z,78.08
2019-03-08T17:48:41.713Z,77.61
2019-03-08T17:49:41.798Z,78.23
2019-03-08T17:51:34.760Z,77.76
2019-03-08T17:52:34.805Z,76.94
2019-03-08T17:54:27.797Z,76.42
2019-03-08T17:55:27.850Z,77.00
2019-03-08T17:57:20.848Z,76.81
2019-03-08T17:58:20.894Z,76.33
2019-03-08T18:00:13.875Z,77.19
2019-03-08T18:01:13.935Z,76.33
2019-03-08T18:03:07.435Z,75.95
2019-03-08T18:04:07.473Z,75.57
2019-03-08T18:06:00.485Z,76.52
2019-03-08T18:07:00.515Z,76.33
2019-03-08T18:08:53.512Z,77.00
2019-03-08T18:09:53.554Z,75.76
2019-03-08T18:11:46.564Z,76.52
2019-03-08T18:12:46.605Z,76.33
2019-03-08T18:14:39.595Z,75.57
2019-03-08T18:15:39.652Z,75.85
2019-03-08T18:17:32.636Z,76.14
2019-03-08T18:18:32.686Z,76.90
2019-03-08T18:20:25.676Z,75.76
2019-03-08T18:21:25.727Z,75.67
2019-03-08T18:23:18.718Z,75.67
2019-03-08T18:24:23.494Z,74.90
2019-03-08T18:26:11.749Z,73.95
2019-03-08T18:27:11.790Z,74.62
2019-03-08T18:29:04.847Z,74.33
2019-03-08T18:30:04.825Z,75.38
2019-03-08T18:31:57.814Z,74.71
2019-03-08T18:32:57.863Z,74.52
2019-03-08T18:34:50.858Z,74.99
2019-03-08T18:35:50.904Z,74.62
2019-03-08T18:37:43.893Z,74.80